Time;durP1;ratioP1;P1;durP2;ratioP2;P2;SDS_P1;SDS_P2;PMS_P1;PMS_P2;Temp;Humidity;BMP_temperature;BMP_pressure;BME280_temperature;BME280_humidity;BME280_pressure;Samples;Min_cycle;Max_cycle;Signal;HPM_P1;HPM_P2
2022/05/05 00:01:12;;;;;;;19.63;12.40;;;;;;;;;;5017447;28;20472;-70
2022/05/05 00:03:38;;;;;;;21.17;12.52;;;;;;;;;;5021202;28;20467;-70
2022/05/05 00:06:03;;;;;;;19.77;11.68;;;;;;;;;;5018237;28;20421;-69
2022/05/05 00:08:30;;;;;;;21.88;12.77;;;;;;;;;;5017635;28;20120;-70
2022/05/05 00:16:34;;;;;;;19.35;12.73;;;;;;;;;;5021176;28;20025;-70
2022/05/05 00:19:01;;;;;;;19.10;13.23;;;;;;;;;;5025071;28;20029;-69
2022/05/05 00:21:26;;;;;;;21.50;13.25;;;;;;;;;;5017415;28;20370;-70
2022/05/05 00:23:51;;;;;;;16.48;12.85;;;;;;;;;;5025461;28;20071;-70
2022/05/05 00:26:17;;;;;;;16.48;12.52;;;;;;;;;;5017459;28;20041;-70
2022/05/05 00:28:42;;;;;;;21.20;12.48;;;;;;;;;;5024677;28;20025;-70
2022/05/05 00:31:07;;;;;;;20.75;12.95;;;;;;;;;;5025412;28;20029;-71
2022/05/05 00:33:33;;;;;;;23.65;13.88;;;;;;;;;;5006392;28;20049;-68
2022/05/05 00:35:58;;;;;;;20.48;12.52;;;;;;;;;;5021469;28;20448;-70
2022/05/05 00:38:24;;;;;;;20.10;12.95;;;;;;;;;;5018938;28;20146;-70
2022/05/05 00:40:49;;;;;;;21.15;13.02;;;;;;;;;;5003497;28;20112;-69
2022/05/05 00:43:14;;;;;;;18.67;12.48;;;;;;;;;;5020102;28;20025;-71
2022/05/05 00:45:40;;;;;;;18.42;13.13;;;;;;;;;;5023616;28;20095;-70
2022/05/05 00:48:07;;;;;;;20.63;13.30;;;;;;;;;;5022798;28;20101;-69
2022/05/05 00:50:33;;;;;;;18.35;12.95;;;;;;;;;;5020597;28;20017;-71
2022/05/05 00:52:59;;;;;;;19.67;13.00;;;;;;;;;;5022107;28;20017;-70
2022/05/05 00:55:24;;;;;;;19.17;12.73;;;;;;;;;;5020919;28;20079;-70
2022/05/05 00:57:50;;;;;;;20.27;11.55;;;;;;;;;;5024379;28;20029;-70
2022/05/05 01:00:16;;;;;;;18.23;12.63;;;;;;;;;;5005809;28;20162;-70
2022/05/05 01:02:41;;;;;;;17.73;12.32;;;;;;;;;;5024641;28;20167;-70
2022/05/05 01:05:07;;;;;;;19.10;12.43;;;;;;;;;;5021554;28;20036;-71
2022/05/05 01:07:33;;;;;;;15.75;11.40;;;;;;;;;;5021175;28;20095;-70
2022/05/05 01:09:58;;;;;;;19.95;12.23;;;;;;;;;;5024569;28;20029;-70
2022/05/05 01:12:29;;;;;;;17.13;12.20;;;;;;;;;;5019512;28;20374;-69
2022/05/05 01:14:54;;;;;;;20.90;12.75;;;;;;;;;;5023431;28;20048;-69
2022/05/05 01:17:19;;;;;;;20.50;13.23;;;;;;;;;;5022124;28;20017;-71
2022/05/05 01:19:44;;;;;;;17.77;12.13;;;;;;;;;;5023690;28;20033;-70
2022/05/05 01:22:10;;;;;;;24.00;14.48;;;;;;;;;;5017006;28;20575;-69
2022/05/05 01:30:04;;;;;;;21.85;13.27;;;;;;;;;;5025475;28;20396;-71
2022/05/05 01:32:30;;;;;;;19.92;13.45;;;;;;;;;;5021496;28;20017;-70
2022/05/05 01:34:57;;;;;;;20.13;13.48;;;;;;;;;;5024349;28;20544;-70
2022/05/05 01:37:22;;;;;;;20.25;13.85;;;;;;;;;;5020722;28;20028;-71
2022/05/05 01:39:48;;;;;;;22.27;13.48;;;;;;;;;;5024367;28;20026;-70
2022/05/05 01:42:13;;;;;;;23.30;13.85;;;;;;;;;;5019731;28;20081;-70
2022/05/05 01:44:38;;;;;;;20.52;13.77;;;;;;;;;;5024192;28;20056;-69
2022/05/05 01:47:03;;;;;;;18.27;13.35;;;;;;;;;;5022862;28;20063;-70
2022/05/05 01:49:29;;;;;;;24.02;14.15;;;;;;;;;;5019781;28;20535;-71
2022/05/05 01:51:54;;;;;;;20.55;12.93;;;;;;;;;;5017306;28;20415;-70
2022/05/05 01:54:20;;;;;;;23.50;13.70;;;;;;;;;;5019009;28;20395;-71
2022/05/05 01:56:46;;;;;;;19.75;13.32;;;;;;;;;;5004431;28;20352;-70
2022/05/05 01:59:12;;;;;;;19.20;13.00;;;;;;;;;;5022641;28;20472;-70
2022/05/05 02:01:37;;;;;;;20.02;13.05;;;;;;;;;;5020057;28;20040;-71
2022/05/05 02:04:02;;;;;;;21.60;13.70;;;;;;;;;;5025189;28;20021;-70
2022/05/05 02:06:27;;;;;;;22.33;14.13;;;;;;;;;;5018068;28;20053;-70
2022/05/05 02:08:53;;;;;;;19.77;13.38;;;;;;;;;;5021228;28;20151;-71
2022/05/05 02:11:18;;;;;;;20.00;14.32;;;;;;;;;;5020571;28;20487;-70
2022/05/05 02:13:44;;;;;;;18.35;12.90;;;;;;;;;;5022782;28;20022;-70
2022/05/05 02:16:09;;;;;;;19.52;13.63;;;;;;;;;;5021886;28;20022;-71
2022/05/05 02:18:34;;;;;;;22.83;12.95;;;;;;;;;;5018737;28;20412;-70
2022/05/05 02:21:00;;;;;;;20.30;13.10;;;;;;;;;;5018716;28;20048;-71
2022/05/05 02:23:25;;;;;;;19.92;12.68;;;;;;;;;;5017871;28;20669;-71
2022/05/05 02:25:50;;;;;;;17.77;12.85;;;;;;;;;;5019776;28;20061;-71
2022/05/05 02:28:16;;;;;;;18.63;12.75;;;;;;;;;;5021189;28;20524;-70
2022/05/05 02:30:41;;;;;;;21.15;12.27;;;;;;;;;;5019157;28;20112;-71
2022/05/05 02:33:07;;;;;;;18.48;12.27;;;;;;;;;;5003644;28;20415;-70
2022/05/05 02:35:32;;;;;;;20.23;12.60;;;;;;;;;;5017940;28;20018;-70
2022/05/05 02:40:41;;;;;;;22.85;13.02;;;;;;;;;;5020430;28;20040;-70
2022/05/05 02:43:07;;;;;;;17.45;12.40;;;;;;;;;;5020276;28;20021;-71
2022/05/05 02:45:32;;;;;;;19.63;12.50;;;;;;;;;;5020210;28;20022;-71
2022/05/05 02:47:58;;;;;;;18.70;13.02;;;;;;;;;;5020324;28;20443;-71
2022/05/05 02:50:23;;;;;;;19.40;12.52;;;;;;;;;;5015481;28;20029;-71
2022/05/05 02:52:48;;;;;;;19.83;13.25;;;;;;;;;;5019638;28;20016;-72
2022/05/05 02:55:15;;;;;;;17.17;12.52;;;;;;;;;;5020428;28;20495;-71
2022/05/05 02:57:40;;;;;;;20.08;12.60;;;;;;;;;;5019201;28;20289;-71
2022/05/05 03:00:09;;;;;;;18.67;12.50;;;;;;;;;;5021790;28;20049;-72
2022/05/05 03:02:34;;;;;;;20.25;12.65;;;;;;;;;;5019534;28;20017;-72
2022/05/05 03:05:01;;;;;;;22.05;13.10;;;;;;;;;;5019855;28;20669;-71
2022/05/05 03:07:26;;;;;;;21.10;12.57;;;;;;;;;;5018306;28;20106;-71
2022/05/05 03:09:52;;;;;;;22.25;13.50;;;;;;;;;;5022449;28;20053;-71
2022/05/05 03:12:18;;;;;;;17.55;12.55;;;;;;;;;;5001235;28;20102;-70
2022/05/05 03:14:46;;;;;;;21.65;12.57;;;;;;;;;;5020713;28;20025;-71
2022/05/05 03:17:11;;;;;;;22.40;13.23;;;;;;;;;;5003469;28;20411;-71
2022/05/05 03:19:37;;;;;;;23.15;13.57;;;;;;;;;;5020246;28;20348;-71
2022/05/05 03:22:03;;;;;;;25.17;14.10;;;;;;;;;;5017590;28;20051;-70
2022/05/05 03:24:28;;;;;;;20.45;13.55;;;;;;;;;;5019283;28;20029;-71
2022/05/05 03:26:54;;;;;;;21.75;13.93;;;;;;;;;;5017919;28;20053;-72
2022/05/05 03:29:20;;;;;;;18.83;12.73;;;;;;;;;;5020549;28;20040;-71
2022/05/05 03:31:45;;;;;;;20.67;13.55;;;;;;;;;;5001519;28;20036;-71
2022/05/05 03:34:10;;;;;;;19.70;12.95;;;;;;;;;;5022911;28;20352;-71
2022/05/05 03:36:35;;;;;;;22.30;13.07;;;;;;;;;;5016830;28;20456;-71
2022/05/05 03:39:01;;;;;;;20.02;13.52;;;;;;;;;;5022989;28;20097;-70
2022/05/05 03:41:26;;;;;;;23.27;15.02;;;;;;;;;;5016863;28;20121;-70
2022/05/05 03:43:54;;;;;;;18.88;12.27;;;;;;;;;;5020001;28;20061;-71
2022/05/05 03:46:20;;;;;;;21.13;13.15;;;;;;;;;;5023996;28;20025;-70
2022/05/05 03:48:46;;;;;;;19.67;13.27;;;;;;;;;;5023261;28;20167;-71
2022/05/05 03:51:12;;;;;;;20.92;13.80;;;;;;;;;;5023148;28;20037;-71
2022/05/05 03:53:38;;;;;;;20.23;14.18;;;;;;;;;;5021389;28;20026;-71
2022/05/05 03:56:04;;;;;;;20.75;13.90;;;;;;;;;;5005193;28;20013;-71
2022/05/05 03:58:29;;;;;;;21.67;14.02;;;;;;;;;;5022999;28;20014;-70
2022/05/05 04:00:54;;;;;;;19.58;13.07;;;;;;;;;;5024733;28;20037;-71
2022/05/05 04:03:32;;;;;;;21.65;13.88;;;;;;;;;;5023054;28;20087;-71
2022/05/05 04:05:58;;;;;;;23.75;14.27;;;;;;;;;;5024356;28;20026;-71
2022/05/05 04:08:25;;;;;;;21.50;14.40;;;;;;;;;;5023094;28;20021;-71
2022/05/05 04:10:51;;;;;;;23.65;14.63;;;;;;;;;;5005577;28;20036;-70
2022/05/05 04:13:16;;;;;;;21.85;14.02;;;;;;;;;;5026395;28;20101;-71
2022/05/05 04:15:49;;;;;;;23.52;14.07;;;;;;;;;;5024146;28;20039;-73
2022/05/05 04:18:14;;;;;;;22.67;12.70;;;;;;;;;;5024912;28;20021;-71
2022/05/05 04:20:41;;;;;;;21.13;13.70;;;;;;;;;;5021012;28;20044;-71
2022/05/05 04:23:09;;;;;;;20.50;14.48;;;;;;;;;;5021180;28;20398;-73
2022/05/05 04:25:40;;;;;;;21.30;14.20;;;;;;;;;;5022346;28;20025;-72
2022/05/05 04:28:37;;;;;;;20.05;13.32;;;;;;;;;;5022929;28;20157;-72
2022/05/05 04:31:08;;;;;;;21.25;13.60;;;;;;;;;;5020966;28;20076;-70
2022/05/05 04:33:37;;;;;;;19.02;13.05;;;;;;;;;;5021535;28;20123;-72
2022/05/05 04:36:07;;;;;;;17.77;12.70;;;;;;;;;;5005610;28;20033;-72
2022/05/05 04:38:32;;;;;;;18.42;13.07;;;;;;;;;;5002452;28;20560;-71
2022/05/05 04:40:58;;;;;;;19.25;12.85;;;;;;;;;;5021793;28;20025;-71
2022/05/05 04:43:24;;;;;;;19.92;13.57;;;;;;;;;;5025226;28;20116;-71
2022/05/05 04:45:49;;;;;;;18.50;12.95;;;;;;;;;;5021730;28;20369;-70
2022/05/05 04:48:14;;;;;;;17.58;12.32;;;;;;;;;;5022383;28;20128;-71
2022/05/05 04:50:39;;;;;;;19.77;13.57;;;;;;;;;;5020188;28;20216;-71
2022/05/05 04:53:05;;;;;;;24.77;14.23;;;;;;;;;;5020943;28;20307;-70
2022/05/05 04:55:30;;;;;;;22.67;13.68;;;;;;;;;;5021544;28;20527;-70
2022/05/05 04:57:56;;;;;;;21.13;13.95;;;;;;;;;;5022313;28;20069;-71
2022/05/05 05:00:22;;;;;;;17.42;12.40;;;;;;;;;;5024343;28;20033;-71
2022/05/05 05:02:47;;;;;;;23.35;14.45;;;;;;;;;;5021662;28;20229;-71
2022/05/05 05:05:12;;;;;;;24.10;13.65;;;;;;;;;;5023681;28;20412;-71
2022/05/05 05:07:38;;;;;;;24.13;14.70;;;;;;;;;;5020138;28;20029;-71
2022/05/05 05:10:03;;;;;;;23.92;13.90;;;;;;;;;;5029949;28;20359;-72
2022/05/05 05:12:29;;;;;;;19.05;13.50;;;;;;;;;;5030742;28;20471;-71
2022/05/05 05:14:54;;;;;;;17.88;13.50;;;;;;;;;;5027108;28;20527;-71
2022/05/05 05:17:19;;;;;;;21.20;13.75;;;;;;;;;;5025628;28;20021;-71
2022/05/05 05:19:44;;;;;;;19.90;13.32;;;;;;;;;;5021934;28;20172;-72
2022/05/05 05:22:10;;;;;;;19.98;13.23;;;;;;;;;;5020491;28;20025;-72
2022/05/05 05:24:35;;;;;;;18.60;13.68;;;;;;;;;;5022512;28;20025;-71
2022/05/05 05:27:00;;;;;;;18.00;12.77;;;;;;;;;;5020660;28;20532;-72
2022/05/05 05:29:27;;;;;;;20.83;13.43;;;;;;;;;;5023614;28;20502;-72
2022/05/05 05:31:53;;;;;;;20.20;14.23;;;;;;;;;;5021471;28;20025;-70
2022/05/05 05:34:18;;;;;;;20.77;13.32;;;;;;;;;;5025896;28;20027;-72
2022/05/05 05:36:43;;;;;;;20.63;13.43;;;;;;;;;;5018466;28;20117;-72
2022/05/05 05:39:11;;;;;;;17.73;12.43;;;;;;;;;;5023768;28;20024;-73
2022/05/05 05:41:39;;;;;;;19.95;12.38;;;;;;;;;;5018503;28;20448;-74
2022/05/05 05:44:08;;;;;;;20.05;12.63;;;;;;;;;;5022858;28;20044;-72
2022/05/05 05:46:34;;;;;;;17.08;12.25;;;;;;;;;;5019982;28;20037;-72
2022/05/05 05:48:59;;;;;;;17.30;12.80;;;;;;;;;;5005934;28;20476;-72
2022/05/05 05:51:25;;;;;;;17.45;13.32;;;;;;;;;;5017629;28;20033;-74
2022/05/05 05:53:51;;;;;;;18.98;12.82;;;;;;;;;;5004125;28;20127;-71
2022/05/05 05:56:16;;;;;;;17.60;12.68;;;;;;;;;;5021211;28;20025;-71
2022/05/05 05:59:05;;;;;;;16.85;12.20;;;;;;;;;;5020565;28;20463;-73
2022/05/05 06:04:35;;;;;;;18.00;12.65;;;;;;;;;;5023042;28;20048;-70
2022/05/05 06:07:00;;;;;;;18.33;13.32;;;;;;;;;;5017743;28;20021;-71
2022/05/05 06:09:29;;;;;;;16.58;13.02;;;;;;;;;;5022602;28;20076;-71
2022/05/05 06:11:58;;;;;;;21.55;13.38;;;;;;;;;;5001443;28;20115;-72
2022/05/05 06:14:26;;;;;;;19.10;13.45;;;;;;;;;;5021996;28;20468;-73
2022/05/05 06:16:51;;;;;;;16.98;12.57;;;;;;;;;;5017627;28;20768;-72
2022/05/05 06:19:19;;;;;;;16.52;12.18;;;;;;;;;;5022129;28;20028;-72
2022/05/05 06:21:49;;;;;;;20.45;14.10;;;;;;;;;;5016061;28;20083;-72
2022/05/05 06:24:14;;;;;;;20.75;14.73;;;;;;;;;;5022038;28;20032;-72
2022/05/05 06:26:42;;;;;;;18.90;13.80;;;;;;;;;;5016749;28;20680;-72
2022/05/05 06:29:07;;;;;;;19.63;13.25;;;;;;;;;;5023121;28;20071;-72
2022/05/05 06:31:33;;;;;;;20.35;14.20;;;;;;;;;;5020944;28;20147;-71
2022/05/05 06:33:59;;;;;;;17.05;12.55;;;;;;;;;;5005133;28;20035;-71
2022/05/05 06:36:24;;;;;;;22.13;14.75;;;;;;;;;;5018512;28;20502;-72
2022/05/05 06:38:53;;;;;;;21.83;14.70;;;;;;;;;;5021847;28;20045;-72
2022/05/05 06:41:18;;;;;;;24.38;16.40;;;;;;;;;;5017890;28;20033;-71
2022/05/05 06:43:43;;;;;;;25.35;16.42;;;;;;;;;;5020513;28;20112;-71
2022/05/05 06:46:09;;;;;;;22.50;16.77;;;;;;;;;;5020627;28;20400;-72
2022/05/05 06:48:35;;;;;;;19.58;15.43;;;;;;;;;;5020723;28;20092;-71
2022/05/05 06:51:00;;;;;;;24.27;16.65;;;;;;;;;;5002496;28;20132;-72
2022/05/05 06:53:25;;;;;;;23.95;16.70;;;;;;;;;;5020106;28;20116;-72
2022/05/05 06:55:55;;;;;;;24.67;16.50;;;;;;;;;;5017284;28;20040;-71
2022/05/05 06:58:20;;;;;;;24.58;17.45;;;;;;;;;;5020157;28;20017;-73
2022/05/05 07:03:29;;;;;;;23.75;16.98;;;;;;;;;;5023128;28;20170;-71
2022/05/05 07:05:55;;;;;;;23.95;17.50;;;;;;;;;;5017914;28;20447;-72
2022/05/05 07:08:21;;;;;;;28.75;18.77;;;;;;;;;;5019838;28;20307;-71
2022/05/05 07:10:52;;;;;;;23.10;16.88;;;;;;;;;;5018263;28;20516;-71
2022/05/05 07:13:18;;;;;;;27.45;17.70;;;;;;;;;;5020533;28;20487;-72
2022/05/05 07:15:44;;;;;;;26.13;18.33;;;;;;;;;;5020164;28;20022;-72
2022/05/05 07:18:09;;;;;;;25.33;18.25;;;;;;;;;;5020494;28;20512;-71
2022/05/05 07:20:35;;;;;;;26.00;18.60;;;;;;;;;;5024538;28;20032;-71
2022/05/05 07:23:01;;;;;;;28.75;19.83;;;;;;;;;;5004505;28;20488;-73
2022/05/05 07:25:26;;;;;;;28.67;19.45;;;;;;;;;;5022553;28;20052;-72
2022/05/05 07:27:52;;;;;;;30.45;19.58;;;;;;;;;;5006507;28;20053;-71
2022/05/05 07:30:17;;;;;;;25.40;18.55;;;;;;;;;;5024736;28;20021;-74
2022/05/05 07:32:43;;;;;;;28.67;20.05;;;;;;;;;;5022530;28;20024;-71
2022/05/05 07:35:11;;;;;;;33.63;22.65;;;;;;;;;;5024386;28;20021;-71
2022/05/05 07:37:39;;;;;;;31.23;21.17;;;;;;;;;;5021004;28;20603;-71
2022/05/05 07:40:05;;;;;;;30.85;21.45;;;;;;;;;;5024473;28;20053;-72
2022/05/05 07:42:30;;;;;;;31.45;21.55;;;;;;;;;;5004727;28;20079;-70
2022/05/05 07:44:56;;;;;;;34.33;22.58;;;;;;;;;;5022439;28;20501;-72
2022/05/05 07:47:21;;;;;;;37.22;24.05;;;;;;;;;;5007086;28;20152;-71
2022/05/05 07:49:47;;;;;;;34.15;23.05;;;;;;;;;;5022777;28;20041;-72
2022/05/05 07:52:12;;;;;;;32.90;23.67;;;;;;;;;;5020486;28;20037;-72
2022/05/05 07:54:44;;;;;;;39.08;26.27;;;;;;;;;;5025708;28;20104;-71
2022/05/05 07:57:12;;;;;;;36.00;24.80;;;;;;;;;;5020813;28;20048;-71
2022/05/05 07:59:38;;;;;;;38.28;25.25;;;;;;;;;;5022732;28;20022;-71
2022/05/05 08:02:05;;;;;;;37.92;26.30;;;;;;;;;;5004001;28;20115;-71
2022/05/05 08:04:30;;;;;;;40.10;25.95;;;;;;;;;;5025202;28;20034;-72
2022/05/05 08:06:56;;;;;;;40.55;27.10;;;;;;;;;;5019372;28;20033;-74
2022/05/05 08:09:21;;;;;;;43.08;28.63;;;;;;;;;;5023876;28;20033;-71
2022/05/05 08:11:47;;;;;;;44.75;29.73;;;;;;;;;;5019623;28;20033;-72
2022/05/05 08:14:12;;;;;;;42.03;28.23;;;;;;;;;;5024039;28;20014;-71
2022/05/05 08:16:38;;;;;;;46.75;31.00;;;;;;;;;;5024043;28;20445;-72
2022/05/05 08:19:04;;;;;;;42.85;29.80;;;;;;;;;;5023368;28;20032;-72
2022/05/05 08:21:29;;;;;;;45.90;30.13;;;;;;;;;;5019891;28;20563;-71
2022/05/05 08:29:26;;;;;;;40.55;27.80;;;;;;;;;;5025498;28;20079;-72
2022/05/05 08:31:52;;;;;;;44.35;30.67;;;;;;;;;;5023810;28;20447;-71
2022/05/05 08:34:17;;;;;;;45.60;32.13;;;;;;;;;;5008042;28;20025;-71
2022/05/05 08:36:45;;;;;;;44.40;31.30;;;;;;;;;;5021483;28;20121;-71
2022/05/05 08:39:10;;;;;;;45.53;31.40;;;;;;;;;;5008087;28;20190;-72
2022/05/05 08:41:38;;;;;;;44.65;30.80;;;;;;;;;;5023024;28;20132;-72
2022/05/05 08:44:03;;;;;;;45.08;29.45;;;;;;;;;;5023190;28;20611;-72
2022/05/05 08:46:30;;;;;;;45.80;32.40;;;;;;;;;;5022841;28;20458;-71
2022/05/05 08:49:01;;;;;;;44.47;32.13;;;;;;;;;;5022549;28;20020;-72
2022/05/05 08:51:28;;;;;;;47.95;31.30;;;;;;;;;;5019186;28;20025;-72
2022/05/05 08:53:54;;;;;;;48.05;32.45;;;;;;;;;;5020700;28;20021;-71
2022/05/05 08:56:19;;;;;;;50.30;34.47;;;;;;;;;;5021329;28;20099;-72
2022/05/05 08:58:45;;;;;;;44.42;32.00;;;;;;;;;;5023209;28;20112;-72
2022/05/05 09:01:15;;;;;;;49.00;33.78;;;;;;;;;;5021936;28;20026;-72
2022/05/05 09:03:41;;;;;;;50.22;35.17;;;;;;;;;;5026789;28;20033;-72
2022/05/05 09:06:07;;;;;;;49.45;35.47;;;;;;;;;;5022380;28;20055;-72
2022/05/05 09:08:33;;;;;;;52.78;36.33;;;;;;;;;;5023548;28;20057;-72
2022/05/05 09:11:01;;;;;;;48.65;34.95;;;;;;;;;;5020853;28;20477;-71
2022/05/05 09:13:36;;;;;;;48.55;35.13;;;;;;;;;;5023981;28;20029;-72
2022/05/05 09:16:03;;;;;;;49.78;36.00;;;;;;;;;;5021455;28;20024;-71
2022/05/05 09:18:30;;;;;;;52.72;35.83;;;;;;;;;;5024131;28;20079;-72
2022/05/05 09:20:56;;;;;;;52.28;37.00;;;;;;;;;;5019843;28;20423;-71
2022/05/05 09:23:29;;;;;;;50.35;36.03;;;;;;;;;;5027286;28;20408;-72
2022/05/05 09:25:54;;;;;;;53.20;37.60;;;;;;;;;;5018885;28;20178;-72
2022/05/05 09:28:21;;;;;;;60.33;39.45;;;;;;;;;;5024720;28;20135;-72
2022/05/05 09:30:50;;;;;;;56.08;41.35;;;;;;;;;;5024295;28;20021;-72
2022/05/05 09:33:17;;;;;;;60.45;40.90;;;;;;;;;;5024215;28;20028;-72
2022/05/05 09:35:42;;;;;;;56.15;39.58;;;;;;;;;;5023298;28;20017;-71
2022/05/05 09:38:08;;;;;;;59.03;38.58;;;;;;;;;;5019924;28;20323;-71
2022/05/05 09:40:33;;;;;;;54.58;38.40;;;;;;;;;;5020465;28;20061;-72
2022/05/05 09:43:01;;;;;;;56.33;39.03;;;;;;;;;;5020519;28;20498;-71
2022/05/05 09:45:32;;;;;;;58.28;39.88;;;;;;;;;;5022173;28;20107;-73
2022/05/05 09:48:02;;;;;;;56.33;38.03;;;;;;;;;;5020633;28;20036;-71
2022/05/05 09:50:28;;;;;;;63.72;40.33;;;;;;;;;;5019879;28;20345;-71
2022/05/05 09:58:27;;;;;;;58.15;37.45;;;;;;;;;;5019361;28;20091;-71
2022/05/05 10:01:00;;;;;;;60.50;36.08;;;;;;;;;;5021118;28;20029;-70
2022/05/05 10:06:29;;;;;;;53.90;36.28;;;;;;;;;;5019231;28;20361;-71
2022/05/05 10:08:56;;;;;;;52.92;37.30;;;;;;;;;;5015244;28;20396;-71
2022/05/05 10:11:22;;;;;;;59.03;40.08;;;;;;;;;;5018355;28;20044;-71
2022/05/05 10:13:49;;;;;;;50.88;35.47;;;;;;;;;;5021811;28;20041;-72
2022/05/05 10:16:14;;;;;;;53.53;36.53;;;;;;;;;;5018313;28;20217;-72
2022/05/05 10:18:40;;;;;;;50.85;36.88;;;;;;;;;;5021967;28;20045;-71
2022/05/05 10:21:06;;;;;;;55.00;36.45;;;;;;;;;;5018470;28;20032;-72
2022/05/05 10:23:55;;;;;;;54.45;35.78;;;;;;;;;;5017256;28;20051;-71
2022/05/05 10:26:23;;;;;;;50.05;34.45;;;;;;;;;;5017366;28;20414;-71
2022/05/05 10:28:49;;;;;;;51.75;35.28;;;;;;;;;;5022972;28;20017;-72
2022/05/05 10:31:30;;;;;;;52.78;36.22;;;;;;;;;;5019777;28;20529;-71
2022/05/05 10:34:01;;;;;;;45.30;33.28;;;;;;;;;;5021262;28;20345;-71
2022/05/05 10:36:27;;;;;;;42.97;32.83;;;;;;;;;;5017941;28;20448;-71
2022/05/05 10:38:54;;;;;;;45.67;34.00;;;;;;;;;;5020416;28;20399;-71
2022/05/05 10:41:35;;;;;;;39.78;30.92;;;;;;;;;;5001610;28;20047;-70
2022/05/05 10:44:13;;;;;;;38.63;28.73;;;;;;;;;;5021702;28;20048;-71
2022/05/05 10:46:54;;;;;;;35.92;28.10;;;;;;;;;;5019831;28;20037;-72
2022/05/05 10:49:41;;;;;;;38.60;28.90;;;;;;;;;;5020681;28;20049;-71
2022/05/05 10:52:10;;;;;;;36.05;26.95;;;;;;;;;;5015287;28;20033;-73
2022/05/05 10:54:39;;;;;;;36.40;27.48;;;;;;;;;;5019934;28;20095;-71
2022/05/05 10:57:23;;;;;;;36.38;29.27;;;;;;;;;;4999163;28;20037;-71
2022/05/05 11:00:07;;;;;;;39.22;29.45;;;;;;;;;;5022390;28;20203;-71
2022/05/05 11:02:33;;;;;;;39.10;29.60;;;;;;;;;;5021759;28;20044;-70
2022/05/05 11:05:17;;;;;;;36.67;28.73;;;;;;;;;;5019091;28;20034;-71
2022/05/05 11:07:43;;;;;;;36.65;28.45;;;;;;;;;;5019242;28;20040;-71
2022/05/05 11:10:29;;;;;;;33.03;24.83;;;;;;;;;;5019266;28;20022;-71
2022/05/05 11:12:54;;;;;;;31.58;24.63;;;;;;;;;;5020036;28;20116;-69
2022/05/05 11:23:43;;;;;;;31.85;24.65;;;;;;;;;;5021493;28;20028;-71
2022/05/05 11:26:09;;;;;;;29.23;23.13;;;;;;;;;;5016614;28;20051;-68
2022/05/05 11:28:36;;;;;;;31.45;22.98;;;;;;;;;;5021282;28;20373;-71
2022/05/05 11:31:02;;;;;;;31.65;21.38;;;;;;;;;;5019056;28;20427;-70
2022/05/05 11:33:28;;;;;;;28.50;20.65;;;;;;;;;;5022242;28;20100;-70
2022/05/05 11:35:55;;;;;;;28.02;21.13;;;;;;;;;;5021051;28;20104;-70
2022/05/05 11:38:22;;;;;;;21.98;17.40;;;;;;;;;;5018979;28;20052;-70
2022/05/05 11:40:47;;;;;;;23.92;19.02;;;;;;;;;;5017858;28;20025;-70
2022/05/05 11:45:59;;;;;;;23.20;16.83;;;;;;;;;;5021834;28;20043;-72
2022/05/05 11:48:25;;;;;;;20.27;16.55;;;;;;;;;;5019758;28;20060;-71
2022/05/05 11:50:50;;;;;;;24.75;17.95;;;;;;;;;;5022615;28;20061;-70
2022/05/05 11:53:17;;;;;;;22.52;17.50;;;;;;;;;;5017180;28;20112;-70
2022/05/05 11:55:44;;;;;;;22.35;17.27;;;;;;;;;;5019703;28;20041;-70
2022/05/05 12:01:36;;;;;;;22.75;17.27;;;;;;;;;;5020755;28;20413;-69
2022/05/05 12:03:59;;;;;;;22.23;17.27;;;;;;;;;;5023969;28;20187;-70
2022/05/05 12:06:25;;;;;;;21.45;16.33;;;;;;;;;;5019020;28;20032;-69
2022/05/05 12:08:50;;;;;;;20.90;16.33;;;;;;;;;;5027060;28;20034;-70
2022/05/05 12:11:16;;;;;;;22.30;16.52;;;;;;;;;;5020923;28;20022;-71
2022/05/05 12:13:41;;;;;;;21.70;17.33;;;;;;;;;;5025660;28;20357;-71
2022/05/05 12:16:08;;;;;;;24.70;18.65;;;;;;;;;;5021639;28;20025;-70
2022/05/05 12:18:33;;;;;;;26.95;18.38;;;;;;;;;;5024468;28;20425;-71
2022/05/05 12:20:59;;;;;;;26.52;19.27;;;;;;;;;;5005697;28;20048;-71
2022/05/05 12:23:27;;;;;;;27.60;20.30;;;;;;;;;;5022197;28;20029;-71
2022/05/05 12:25:52;;;;;;;27.23;20.90;;;;;;;;;;5022416;28;20411;-71
2022/05/05 12:28:17;;;;;;;28.33;20.88;;;;;;;;;;5024216;28;20053;-70
2022/05/05 12:30:43;;;;;;;29.42;22.40;;;;;;;;;;5024916;28;20128;-71
2022/05/05 12:33:12;;;;;;;31.85;24.45;;;;;;;;;;5005451;28;20025;-70
2022/05/05 12:35:41;;;;;;;29.23;23.15;;;;;;;;;;5023813;28;20029;-71
2022/05/05 12:38:07;;;;;;;33.90;25.40;;;;;;;;;;5020825;28;20456;-71
2022/05/05 12:40:33;;;;;;;30.10;23.60;;;;;;;;;;5020669;28;20103;-70
2022/05/05 12:43:05;;;;;;;30.63;23.98;;;;;;;;;;5024840;28;20017;-72
2022/05/05 12:45:31;;;;;;;32.05;24.48;;;;;;;;;;5023444;28;20047;-70
2022/05/05 12:48:02;;;;;;;34.00;25.90;;;;;;;;;;5025122;28;20025;-73
2022/05/05 12:50:27;;;;;;;34.53;25.33;;;;;;;;;;5019620;28;20624;-71
2022/05/05 13:01:05;;;;;;;38.75;26.52;;;;;;;;;;5023145;28;20052;-69
2022/05/05 13:03:30;;;;;;;36.15;27.10;;;;;;;;;;5023317;28;20030;-71
2022/05/05 13:05:56;;;;;;;38.58;26.70;;;;;;;;;;5021150;28;20031;-68
2022/05/05 13:08:21;;;;;;;37.15;27.20;;;;;;;;;;5018534;28;20022;-70
2022/05/05 13:10:46;;;;;;;35.22;26.52;;;;;;;;;;5022339;28;20375;-70
2022/05/05 13:13:12;;;;;;;38.85;27.85;;;;;;;;;;5020274;28;20026;-69
2022/05/05 13:15:37;;;;;;;38.15;27.75;;;;;;;;;;5023250;28;20511;-70
2022/05/05 13:18:05;;;;;;;37.85;26.92;;;;;;;;;;5022401;28;20464;-71
2022/05/05 13:20:31;;;;;;;38.83;26.30;;;;;;;;;;5002490;28;20299;-70
2022/05/05 13:22:56;;;;;;;37.35;27.95;;;;;;;;;;5021908;28;20071;-69
2022/05/05 13:25:23;;;;;;;38.95;28.25;;;;;;;;;;5018872;28;20032;-70
2022/05/05 13:27:49;;;;;;;39.85;28.92;;;;;;;;;;5022228;28;20042;-71
2022/05/05 13:30:14;;;;;;;38.13;27.33;;;;;;;;;;5002945;28;20422;-70
2022/05/05 13:32:39;;;;;;;38.05;26.92;;;;;;;;;;5023669;28;20130;-70
2022/05/05 13:35:06;;;;;;;38.92;25.95;;;;;;;;;;5020743;28;20022;-70
2022/05/05 13:37:32;;;;;;;34.38;26.73;;;;;;;;;;5019007;28;20025;-69
2022/05/05 13:39:57;;;;;;;35.95;27.42;;;;;;;;;;5020871;28;20083;-69
2022/05/05 13:42:22;;;;;;;32.28;25.88;;;;;;;;;;5021159;28;20116;-69
2022/05/05 13:44:47;;;;;;;37.65;26.13;;;;;;;;;;5025211;28;20065;-70
2022/05/05 13:47:12;;;;;;;33.78;25.05;;;;;;;;;;5022036;28;20112;-69
2022/05/05 13:49:38;;;;;;;30.50;24.88;;;;;;;;;;5023909;28;20037;-70
2022/05/05 13:52:03;;;;;;;31.95;25.33;;;;;;;;;;5019758;28;20476;-70
2022/05/05 13:54:28;;;;;;;30.88;24.10;;;;;;;;;;5023144;28;20705;-70
2022/05/05 13:56:54;;;;;;;29.67;25.30;;;;;;;;;;5006400;28;20488;-69
2022/05/05 13:59:20;;;;;;;29.02;23.23;;;;;;;;;;5006881;28;20381;-70
2022/05/05 14:01:46;;;;;;;27.35;21.38;;;;;;;;;;5006529;28;20392;-69
2022/05/05 14:04:12;;;;;;;28.13;23.15;;;;;;;;;;5023949;28;20018;-70
2022/05/05 14:06:37;;;;;;;27.95;23.42;;;;;;;;;;5019256;28;20060;-70
2022/05/05 14:12:15;;;;;;;28.73;24.33;;;;;;;;;;5021298;28;20042;-70
2022/05/05 14:14:40;;;;;;;30.67;24.65;;;;;;;;;;5004631;28;20021;-69
2022/05/05 14:17:06;;;;;;;27.38;24.10;;;;;;;;;;5010943;28;20103;-71
2022/05/05 14:19:32;;;;;;;28.75;24.17;;;;;;;;;;5002637;28;20833;-70
2022/05/05 14:21:58;;;;;;;26.00;21.35;;;;;;;;;;5019022;28;20339;-72
2022/05/05 14:24:23;;;;;;;27.83;23.40;;;;;;;;;;5018347;28;20522;-71
2022/05/05 14:26:49;;;;;;;30.15;23.88;;;;;;;;;;5022251;28;20049;-72
2022/05/05 14:29:15;;;;;;;28.08;23.40;;;;;;;;;;5019042;28;20022;-70
2022/05/05 14:31:40;;;;;;;29.88;24.13;;;;;;;;;;5020805;28;20672;-69
2022/05/05 14:34:06;;;;;;;29.38;23.27;;;;;;;;;;5022551;28;20021;-70
2022/05/05 14:36:32;;;;;;;31.73;24.20;;;;;;;;;;5016647;28;20021;-71
2022/05/05 14:38:57;;;;;;;32.78;24.42;;;;;;;;;;5021791;28;20018;-70
2022/05/05 14:41:22;;;;;;;28.60;21.35;;;;;;;;;;5020204;28;20033;-71
2022/05/05 14:43:47;;;;;;;28.27;21.38;;;;;;;;;;5022795;28;20026;-71
2022/05/05 14:46:14;;;;;;;27.75;22.77;;;;;;;;;;5021379;28;20159;-70
2022/05/05 14:48:41;;;;;;;32.53;23.55;;;;;;;;;;5004191;28;20040;-71
2022/05/05 14:51:07;;;;;;;27.92;22.35;;;;;;;;;;5018162;28;20036;-70
2022/05/05 14:53:32;;;;;;;29.73;23.20;;;;;;;;;;5017900;28;20297;-70
2022/05/05 14:55:57;;;;;;;32.10;23.40;;;;;;;;;;5020865;28;20040;-71
2022/05/05 14:58:23;;;;;;;27.75;21.70;;;;;;;;;;5019124;28;20030;-71
2022/05/05 15:00:48;;;;;;;31.42;22.02;;;;;;;;;;5021764;28;20026;-72
2022/05/05 15:03:15;;;;;;;27.88;21.45;;;;;;;;;;5019646;28;20356;-69
2022/05/05 15:05:40;;;;;;;31.35;21.80;;;;;;;;;;5001696;28;20142;-70
2022/05/05 15:08:06;;;;;;;25.60;20.48;;;;;;;;;;5022378;28;20468;-71
2022/05/05 15:10:31;;;;;;;27.30;19.67;;;;;;;;;;5017810;28;20079;-70
2022/05/05 15:12:56;;;;;;;28.30;20.52;;;;;;;;;;5022249;28;20059;-70